Time;durP1;ratioP1;P1;durP2;ratioP2;P2;SDS_P1;SDS_P2;PMS_P1;PMS_P2;Temp;Humidity;BMP_temperature;BMP_pressure;BME280_temperature;BME280_humidity;BME280_pressure;Samples;Min_cycle;Max_cycle;Signal;HPM_P1;HPM_P2
2023/02/10 05:08:34;;;;;;;6.82;5.70;;;-4.30;99.90;;;;;;5012937;28;20313;-67
2023/02/10 05:10:59;;;;;;;12.07;7.73;;;-4.30;99.90;;;;;;5014464;28;20609;-68
2023/02/10 05:13:25;;;;;;;9.73;6.60;;;-4.30;99.90;;;;;;5014101;28;20903;-68
2023/02/10 05:15:50;;;;;;;9.80;7.83;;;-4.30;99.90;;;;;;5014429;28;20672;-68
2023/02/10 05:18:16;;;;;;;9.30;5.67;;;-4.30;99.90;;;;;;5014499;28;20167;-68
2023/02/10 05:20:41;;;;;;;11.70;9.10;;;-4.30;99.90;;;;;;5014214;28;20167;-68
2023/02/10 05:23:07;;;;;;;7.97;7.07;;;-4.30;99.90;;;;;;5013946;28;20528;-68
2023/02/10 05:25:33;;;;;;;6.80;6.13;;;-4.30;99.90;;;;;;5014245;28;20199;-69
2023/02/10 05:27:58;;;;;;;13.97;8.00;;;-4.30;99.90;;;;;;5014285;28;20166;-67
2023/02/10 05:30:24;;;;;;;9.10;6.73;;;-4.40;99.90;;;;;;5014088;28;20202;-67
2023/02/10 05:32:49;;;;;;;11.60;8.63;;;-4.40;99.90;;;;;;5014043;28;20163;-67
2023/02/10 05:35:15;;;;;;;10.10;7.63;;;-4.40;99.90;;;;;;5011681;28;20218;-67
2023/02/10 05:37:40;;;;;;;9.23;6.50;;;-4.40;99.90;;;;;;5014071;28;20597;-66
2023/02/10 05:40:07;;;;;;;14.00;8.20;;;-4.40;99.90;;;;;;5013639;28;20560;-67
2023/02/10 05:42:32;;;;;;;20.75;13.27;;;-4.40;99.90;;;;;;5013920;28;20167;-67
2023/02/10 05:44:58;;;;;;;11.17;7.93;;;-4.40;99.90;;;;;;5013572;28;20241;-67
2023/02/10 05:47:23;;;;;;;12.13;6.90;;;-4.40;99.90;;;;;;5013899;28;20514;-67
2023/02/10 05:49:49;;;;;;;9.50;7.17;;;-4.40;99.90;;;;;;5013103;28;20604;-67
2023/02/10 05:52:15;;;;;;;8.17;7.33;;;-4.40;99.90;;;;;;5004925;28;20179;-67
2023/02/10 05:54:40;;;;;;;8.80;6.87;;;-4.40;99.90;;;;;;5001282;28;20710;-67
2023/02/10 05:57:06;;;;;;;16.07;7.80;;;-4.40;99.90;;;;;;5013816;28;20190;-68
2023/02/10 05:59:32;;;;;;;11.45;7.63;;;-4.40;99.90;;;;;;5013627;28;20171;-67
2023/02/10 06:01:58;;;;;;;11.47;8.00;;;-4.30;99.90;;;;;;5009631;28;20178;-68
2023/02/10 06:04:23;;;;;;;9.00;7.40;;;-4.30;99.90;;;;;;5013321;28;20256;-67
2023/02/10 06:06:49;;;;;;;10.13;8.10;;;-4.30;99.90;;;;;;5013418;28;20270;-68
2023/02/10 06:09:15;;;;;;;16.47;7.93;;;-4.30;99.90;;;;;;5013230;28;20202;-66
2023/02/10 06:11:40;;;;;;;13.20;8.00;;;-4.30;99.90;;;;;;5013227;28;20232;-67
2023/02/10 06:14:06;;;;;;;8.53;6.00;;;-4.30;99.90;;;;;;5013201;28;20648;-68
2023/02/10 06:16:32;;;;;;;13.80;8.37;;;-4.30;99.90;;;;;;5013125;28;20174;-67
2023/02/10 06:18:57;;;;;;;12.37;7.00;;;-4.30;99.90;;;;;;5012991;28;20171;-67
2023/02/10 06:21:23;;;;;;;10.73;9.73;;;-4.30;99.90;;;;;;5013475;28;20181;-67
2023/02/10 06:23:50;;;;;;;20.77;8.70;;;-4.30;99.90;;;;;;5012922;28;20171;-68
2023/02/10 06:26:15;;;;;;;21.63;9.70;;;-4.30;99.90;;;;;;5013407;28;20171;-66
2023/02/10 06:28:41;;;;;;;17.70;11.27;;;-4.40;99.90;;;;;;5013456;28;20549;-70
2023/02/10 06:31:07;;;;;;;10.57;7.57;;;-4.40;99.90;;;;;;4994533;28;20183;-71
2023/02/10 06:33:35;;;;;;;14.45;10.13;;;-4.30;99.90;;;;;;4992890;28;20178;-68
2023/02/10 06:36:05;;;;;;;7.82;7.05;;;-4.40;99.90;;;;;;5006758;28;20182;-69
2023/02/10 06:38:33;;;;;;;10.13;6.10;;;-4.40;99.90;;;;;;5013533;28;20167;-69
2023/02/10 06:40:58;;;;;;;16.95;7.43;;;-4.40;99.90;;;;;;4995818;28;20229;-71
2023/02/10 06:43:24;;;;;;;13.77;8.33;;;-4.30;99.90;;;;;;4993095;28;20649;-69
2023/02/10 06:45:50;;;;;;;7.90;7.07;;;-4.30;99.90;;;;;;5008705;28;20496;-70
2023/02/10 06:48:15;;;;;;;9.13;6.80;;;-4.30;99.90;;;;;;4993781;28;20179;-70
2023/02/10 06:50:41;;;;;;;13.57;8.30;;;-4.30;99.90;;;;;;4993646;28;20180;-70
2023/02/10 06:53:06;;;;;;;10.17;7.73;;;-4.20;99.90;;;;;;4993253;28;20171;-70
2023/02/10 06:55:33;;;;;;;10.60;5.87;;;-4.20;99.90;;;;;;4994615;28;20187;-71
2023/02/10 06:58:00;;;;;;;22.92;11.52;;;-4.10;99.90;;;;;;4997472;28;20529;-72
2023/02/10 07:00:26;;;;;;;6.95;6.43;;;-4.00;99.90;;;;;;5000684;28;20220;-70
2023/02/10 07:02:51;;;;;;;10.93;7.43;;;-3.90;99.90;;;;;;4998674;28;20259;-67
2023/02/10 07:05:17;;;;;;;11.53;8.00;;;-3.90;99.90;;;;;;5026778;28;20281;-66
2023/02/10 07:07:43;;;;;;;13.00;8.27;;;-3.80;99.90;;;;;;5036255;28;20201;-68
2023/02/10 07:10:09;;;;;;;13.25;9.18;;;-3.70;99.90;;;;;;5013573;28;20202;-67
2023/02/10 07:12:35;;;;;;;12.13;8.90;;;-3.60;99.90;;;;;;5015573;28;20662;-65
2023/02/10 07:15:01;;;;;;;14.33;9.37;;;-3.50;99.90;;;;;;5015642;28;20425;-66
2023/02/10 07:17:27;;;;;;;16.40;8.13;;;-3.40;99.90;;;;;;5016699;28;20401;-68
2023/02/10 07:19:54;;;;;;;14.45;10.23;;;-3.30;99.90;;;;;;5009516;28;20287;-68
2023/02/10 07:22:20;;;;;;;16.33;8.77;;;-3.10;99.90;;;;;;5011599;28;20273;-74
2023/02/10 07:24:46;;;;;;;12.25;10.02;;;-2.90;99.90;;;;;;5014574;28;20200;-74
2023/02/10 07:27:11;;;;;;;18.37;10.93;;;-2.80;99.90;;;;;;5016529;28;20175;-67
2023/02/10 07:29:37;;;;;;;14.13;10.63;;;-2.70;99.90;;;;;;5015863;28;20202;-69
2023/02/10 07:32:03;;;;;;;21.93;11.43;;;-2.60;99.90;;;;;;5016142;28;20258;-65
2023/02/10 07:34:30;;;;;;;19.23;11.27;;;-2.50;99.90;;;;;;5015656;28;20223;-67
2023/02/10 07:36:56;;;;;;;16.08;12.52;;;-2.20;99.90;;;;;;5015805;28;20410;-67
2023/02/10 07:39:23;;;;;;;25.77;13.95;;;-1.80;99.90;;;;;;5022861;28;20181;-66
2023/02/10 07:41:49;;;;;;;19.92;13.32;;;-1.50;99.90;;;;;;4996414;28;20537;-64
2023/02/10 07:44:15;;;;;;;22.58;13.35;;;-1.30;99.90;;;;;;4995875;28;20195;-65
2023/02/10 07:46:41;;;;;;;19.30;13.43;;;-1.20;99.90;;;;;;4996527;28;20223;-68
2023/02/10 07:49:07;;;;;;;22.30;12.10;;;-1.00;99.90;;;;;;4996262;28;20462;-67
2023/02/10 07:51:33;;;;;;;27.10;14.97;;;-0.80;99.90;;;;;;5004271;28;20768;-66
2023/02/10 07:53:58;;;;;;;14.63;12.50;;;-0.40;99.90;;;;;;5013959;28;20787;-65
2023/02/10 07:56:24;;;;;;;20.03;13.03;;;-0.10;99.90;;;;;;5005271;28;20831;-67
2023/02/10 07:58:49;;;;;;;22.40;12.67;;;0.20;99.90;;;;;;5024504;28;20175;-67
2023/02/10 08:01:15;;;;;;;17.40;12.03;;;0.40;99.90;;;;;;4997546;28;20553;-65
2023/02/10 08:03:41;;;;;;;19.50;13.23;;;0.80;99.90;;;;;;4995515;28;20185;-67
2023/02/10 08:06:07;;;;;;;13.93;11.23;;;1.30;99.90;;;;;;5009726;28;20174;-69
2023/02/10 08:08:33;;;;;;;18.30;11.80;;;1.80;99.90;;;;;;5031777;28;20206;-67
2023/02/10 08:10:58;;;;;;;18.63;11.30;;;2.30;99.90;;;;;;5010906;28;20707;-66
2023/02/10 08:13:24;;;;;;;17.20;11.90;;;2.90;99.90;;;;;;4997151;28;20410;-67
2023/02/10 08:15:50;;;;;;;21.17;11.13;;;3.50;99.90;;;;;;5005549;28;20308;-67
2023/02/10 08:18:16;;;;;;;17.83;12.50;;;3.70;99.90;;;;;;5019164;28;20171;-67
2023/02/10 08:20:42;;;;;;;19.70;11.13;;;3.80;99.90;;;;;;5026843;28;20189;-66
2023/02/10 08:23:15;;;;;;;17.80;12.18;;;4.00;99.90;;;;;;5034530;28;20227;-67
2023/02/10 08:25:40;;;;;;;16.88;12.82;;;4.40;99.90;;;;;;5031003;28;20187;-69
2023/02/10 08:28:06;;;;;;;15.77;11.87;;;4.80;99.90;;;;;;5009780;28;20178;-71
2023/02/10 08:30:32;;;;;;;17.47;13.47;;;5.20;98.30;;;;;;4995308;28;20462;-68
2023/02/10 08:32:57;;;;;;;12.50;10.17;;;5.70;98.30;;;;;;4993800;28;20266;-70
2023/02/10 08:35:24;;;;;;;20.20;13.07;;;6.10;97.50;;;;;;4994176;28;20197;-67
2023/02/10 08:37:49;;;;;;;16.63;10.60;;;6.50;96.20;;;;;;5011767;28;20187;-68
2023/02/10 08:40:15;;;;;;;14.33;10.37;;;6.90;96.10;;;;;;5014957;28;20782;-68
2023/02/10 08:42:41;;;;;;;15.80;12.70;;;7.40;93.90;;;;;;5014360;28;20178;-68
2023/02/10 08:45:06;;;;;;;19.00;12.10;;;7.70;93.60;;;;;;5014376;28;20562;-68
2023/02/10 08:47:33;;;;;;;14.90;12.87;;;8.10;93.60;;;;;;5007866;28;20642;-67
2023/02/10 08:49:59;;;;;;;17.53;12.47;;;8.60;91.80;;;;;;5010758;28;20467;-65
2023/02/10 08:52:24;;;;;;;14.13;12.17;;;9.00;92.20;;;;;;4993867;28;20741;-65
2023/02/10 08:54:51;;;;;;;16.00;12.90;;;9.50;91.00;;;;;;4994600;28;20193;-65
2023/02/10 08:57:17;;;;;;;20.77;13.60;;;10.10;89.10;;;;;;4996435;28;20189;-66
2023/02/10 08:59:43;;;;;;;15.97;12.50;;;10.60;85.70;;;;;;5007298;28;20434;-66
2023/02/10 09:02:11;;;;;;;18.43;13.90;;;11.20;85.70;;;;;;5015319;28;20447;-66
2023/02/10 09:04:37;;;;;;;20.00;13.90;;;11.70;81.30;;;;;;5019900;28;20227;-66
2023/02/10 09:07:02;;;;;;;21.00;15.20;;;12.00;77.20;;;;;;4994841;28;20492;-65
2023/02/10 09:09:28;;;;;;;23.33;15.40;;;12.00;77.40;;;;;;4994434;28;20200;-67
2023/02/10 09:11:54;;;;;;;19.80;15.17;;;12.10;76.20;;;;;;4994926;28;20214;-65
2023/02/10 09:14:20;;;;;;;19.33;15.03;;;12.20;76.40;;;;;;4994150;28;20202;-65
2023/02/10 09:16:45;;;;;;;18.73;14.27;;;12.10;76.70;;;;;;5003214;28;20423;-65
2023/02/10 09:19:11;;;;;;;16.70;14.40;;;12.10;77.40;;;;;;5011875;28;20250;-65
2023/02/10 09:21:37;;;;;;;17.30;13.80;;;12.10;77.00;;;;;;5013269;28;20182;-65
2023/02/10 09:24:03;;;;;;;18.70;15.50;;;12.10;77.70;;;;;;5013401;28;20609;-65
2023/02/10 09:26:28;;;;;;;20.70;14.47;;;12.30;76.50;;;;;;4999968;28;20210;-65
2023/02/10 09:28:54;;;;;;;19.00;15.17;;;12.40;75.90;;;;;;4994386;28;20493;-65
2023/02/10 09:31:22;;;;;;;19.93;15.63;;;12.50;76.00;;;;;;4997703;28;20194;-65
2023/02/10 09:33:47;;;;;;;17.97;13.17;;;12.60;75.40;;;;;;5013164;28;20582;-65
2023/02/10 09:36:16;;;;;;;16.97;14.27;;;12.40;75.50;;;;;;5013357;28;20430;-65
2023/02/10 09:38:41;;;;;;;22.73;15.23;;;12.50;76.20;;;;;;4994220;28;20179;-65
2023/02/10 09:41:19;;;;;;;19.90;14.80;;;12.70;75.60;;;;;;4993766;28;20891;-65
2023/02/10 09:44:22;;;;;;;16.70;14.93;;;12.90;74.70;;;;;;4991793;28;20188;-66
2023/02/10 09:47:17;;;;;;;15.20;13.60;;;13.20;74.40;;;;;;4912941;29;20447;-63
2023/02/10 09:49:58;;;;;;;22.00;15.07;;;13.10;73.30;;;;;;5009542;28;20461;-63
2023/02/10 09:52:23;;;;;;;15.33;13.67;;;12.90;74.30;;;;;;5009024;28;20405;-64
2023/02/10 09:54:49;;;;;;;17.17;13.90;;;13.10;75.00;;;;;;5008798;28;20442;-64
2023/02/10 09:57:23;;;;;;;18.50;15.03;;;13.60;72.70;;;;;;5011578;28;20187;-64
2023/02/10 09:59:53;;;;;;;16.33;13.00;;;13.90;72.10;;;;;;5000926;28;20427;-64
2023/02/10 10:02:28;;;;;;;18.57;13.37;;;14.00;70.90;;;;;;5008714;28;20445;-64
2023/02/10 10:04:56;;;;;;;17.03;13.80;;;14.20;71.60;;;;;;4993493;28;20455;-65
2023/02/10 10:07:38;;;;;;;17.97;14.43;;;14.30;70.10;;;;;;4994185;28;20498;-65
2023/02/10 10:10:21;;;;;;;22.30;13.40;;;14.20;70.10;;;;;;4994125;28;20577;-65
2023/02/10 10:12:47;;;;;;;19.73;14.10;;;14.20;70.10;;;;;;5009730;28;20422;-65
2023/02/10 10:15:18;;;;;;;17.23;11.90;;;14.20;70.00;;;;;;5012945;28;20455;-64
2023/02/10 10:18:19;;;;;;;15.93;13.30;;;14.00;70.40;;;;;;5013123;28;20518;-66
2023/02/10 10:21:03;;;;;;;16.57;12.20;;;14.00;70.10;;;;;;5005147;28;20925;-66
2023/02/10 10:23:37;;;;;;;20.07;13.87;;;13.80;70.00;;;;;;4994404;28;20427;-66
2023/02/10 10:26:26;;;;;;;15.83;12.17;;;13.60;70.40;;;;;;5013521;28;20511;-65
2023/02/10 10:29:01;;;;;;;16.60;12.07;;;13.30;71.30;;;;;;5009822;28;20472;-65
2023/02/10 10:31:34;;;;;;;16.90;12.77;;;13.40;71.10;;;;;;5007908;28;20491;-64
2023/02/10 10:34:23;;;;;;;16.90;13.03;;;13.40;70.00;;;;;;5008539;28;20473;-65
2023/02/10 10:36:54;;;;;;;13.03;11.70;;;13.40;69.90;;;;;;4999613;28;20421;-65
2023/02/10 10:39:41;;;;;;;18.10;12.60;;;13.20;69.60;;;;;;5004141;28;20779;-65
2023/02/10 10:42:19;;;;;;;17.60;12.73;;;13.10;70.20;;;;;;5014560;28;20436;-64
2023/02/10 10:44:48;;;;;;;14.40;12.63;;;13.10;70.80;;;;;;4997112;28;20805;-65
2023/02/10 10:47:20;;;;;;;17.87;13.70;;;13.00;69.00;;;;;;5004475;28;20441;-63
2023/02/10 10:49:46;;;;;;;14.10;11.40;;;12.80;69.70;;;;;;5010633;28;20469;-63
2023/02/10 10:52:28;;;;;;;15.97;13.00;;;12.50;70.60;;;;;;4997358;28;20977;-64
2023/02/10 10:54:55;;;;;;;15.40;11.10;;;12.30;71.20;;;;;;5002822;28;20241;-64
2023/02/10 10:57:22;;;;;;;15.70;11.70;;;12.20;71.90;;;;;;5008794;28;20783;-65
2023/02/10 10:59:54;;;;;;;16.70;12.90;;;11.90;70.60;;;;;;5017406;28;20951;-65
2023/02/10 11:02:23;;;;;;;13.07;11.17;;;11.70;70.10;;;;;;5016771;28;20408;-66
2023/02/10 11:05:03;;;;;;;18.20;12.47;;;11.60;70.70;;;;;;5002677;28;20454;-65
2023/02/10 11:07:32;;;;;;;17.00;12.80;;;11.70;71.70;;;;;;4997087;28;20505;-66
2023/02/10 11:09:59;;;;;;;14.57;11.70;;;11.90;71.50;;;;;;4997148;28;20461;-66
2023/02/10 11:12:36;;;;;;;15.50;11.10;;;12.00;71.00;;;;;;4998029;28;20430;-64
2023/02/10 11:15:24;;;;;;;16.60;12.70;;;12.00;69.30;;;;;;5029101;28;20443;-63
2023/02/10 11:17:50;;;;;;;15.47;10.70;;;11.70;68.80;;;;;;5004663;28;20437;-64
2023/02/10 11:20:22;;;;;;;17.60;11.40;;;11.20;69.50;;;;;;5009221;28;20512;-64
2023/02/10 11:23:00;;;;;;;12.17;10.37;;;11.20;70.40;;;;;;5016155;28;20467;-63
2023/02/10 11:25:33;;;;;;;17.77;11.40;;;10.90;71.00;;;;;;5002532;28;20465;-64
2023/02/10 11:28:01;;;;;;;15.23;12.13;;;10.70;71.40;;;;;;4996576;28;20464;-65
2023/02/10 11:30:33;;;;;;;13.87;11.57;;;10.40;71.40;;;;;;5009685;28;20492;-65
2023/02/10 11:33:00;;;;;;;16.47;12.00;;;9.80;73.20;;;;;;5011607;28;20484;-66
2023/02/10 11:35:28;;;;;;;15.13;10.43;;;9.20;75.50;;;;;;4996227;28;20459;-66
2023/02/10 11:37:57;;;;;;;14.67;10.63;;;8.70;74.70;;;;;;4998722;28;20819;-69
2023/02/10 11:40:48;;;;;;;11.57;9.32;;;8.30;75.40;;;;;;5016115;28;20421;-69
2023/02/10 11:43:15;;;;;;;11.68;8.68;;;7.80;78.60;;;;;;4997477;28;20657;-69
2023/02/10 11:45:54;;;;;;;13.43;8.38;;;7.70;79.30;;;;;;4996246;28;20191;-64
2023/02/10 11:48:22;;;;;;;11.02;7.65;;;7.40;78.60;;;;;;5012919;28;20189;-64
2023/02/10 11:50:59;;;;;;;11.70;8.60;;;7.30;78.70;;;;;;5012213;28;20585;-63
2023/02/10 11:53:29;;;;;;;12.63;7.88;;;7.10;78.90;;;;;;4996168;28;20186;-64
2023/02/10 11:56:06;;;;;;;14.10;8.52;;;6.80;77.80;;;;;;4999696;28;20275;-65
2023/02/10 11:58:58;;;;;;;11.40;8.57;;;6.70;79.10;;;;;;5011508;28;20637;-64
2023/02/10 12:01:46;;;;;;;12.52;8.45;;;6.70;79.50;;;;;;5008198;28;20183;-66
2023/02/10 12:04:17;;;;;;;12.75;8.10;;;6.60;78.80;;;;;;4995735;28;20603;-64
2023/02/10 12:07:01;;;;;;;13.90;9.18;;;6.50;78.60;;;;;;5004587;28;20187;-66
2023/02/10 12:09:36;;;;;;;15.95;9.98;;;6.50;79.70;;;;;;5015755;28;20621;-66
2023/02/10 12:12:32;;;;;;;13.52;9.27;;;6.60;80.80;;;;;;5004101;28;20245;-67
2023/02/10 12:15:05;;;;;;;15.25;9.13;;;6.60;81.20;;;;;;4995390;28;20592;-64
2023/02/10 12:17:48;;;;;;;11.95;8.10;;;6.60;80.50;;;;;;5000903;28;20170;-64
2023/02/10 12:20:41;;;;;;;13.07;9.25;;;6.60;81.30;;;;;;5012516;28;20175;-62
2023/02/10 12:23:39;;;;;;;13.30;9.20;;;6.60;80.40;;;;;;5010545;28;20201;-63
2023/02/10 12:26:18;;;;;;;13.90;9.73;;;6.60;81.60;;;;;;5013429;28;20179;-65
2023/02/10 12:28:49;;;;;;;15.10;9.10;;;6.50;81.60;;;;;;5013424;28;20212;-63
2023/02/10 12:31:35;;;;;;;12.73;9.60;;;6.50;81.90;;;;;;5011539;28;20185;-64
2023/02/10 12:34:19;;;;;;;15.68;9.93;;;6.60;83.40;;;;;;5014331;28;20193;-64
2023/02/10 12:37:09;;;;;;;13.05;9.30;;;6.70;83.80;;;;;;5009737;28;20516;-66
2023/02/10 12:39:53;;;;;;;13.63;9.07;;;6.80;82.70;;;;;;5011988;28;20179;-66
2023/02/10 12:42:30;;;;;;;15.57;8.10;;;6.80;82.20;;;;;;5004547;28;20587;-71
2023/02/10 12:45:37;;;;;;;15.05;9.38;;;6.80;81.70;;;;;;5011201;28;20248;-69
2023/02/10 12:48:20;;;;;;;12.43;9.23;;;6.70;82.90;;;;;;5000464;28;20178;-63
2023/02/10 12:51:12;;;;;;;17.23;9.68;;;6.60;82.60;;;;;;4994777;28;20190;-67
2023/02/10 12:53:45;;;;;;;14.30;9.63;;;6.60;82.80;;;;;;5011354;28;20176;-66
2023/02/10 12:56:22;;;;;;;12.32;8.05;;;6.50;82.40;;;;;;4996216;28;20233;-66
2023/02/10 12:59:18;;;;;;;13.45;8.93;;;6.50;81.50;;;;;;4998951;28;20541;-67
2023/02/10 13:01:49;;;;;;;14.40;9.32;;;6.50;81.20;;;;;;4958949;28;20213;-69
2023/02/10 13:04:48;;;;;;;11.80;9.05;;;6.40;83.10;;;;;;5003956;28;20537;-68
2023/02/10 13:07:26;;;;;;;16.50;8.73;;;6.50;82.10;;;;;;4985557;28;20612;-66
2023/02/10 13:10:07;;;;;;;11.93;8.27;;;6.40;81.60;;;;;;4993510;28;20297;-68
2023/02/10 13:12:44;;;;;;;11.43;8.98;;;6.50;82.30;;;;;;5011007;28;20584;-69
2023/02/10 13:15:33;;;;;;;15.90;8.48;;;6.50;82.40;;;;;;5027517;28;20735;-66
2023/02/10 13:17:59;;;;;;;14.48;9.90;;;6.50;82.70;;;;;;5013714;28;20550;-67
2023/02/10 13:20:49;;;;;;;13.20;8.52;;;6.50;82.70;;;;;;5012968;28;20186;-68
2023/02/10 13:23:29;;;;;;;17.65;9.23;;;6.60;82.10;;;;;;5013955;28;20264;-67
2023/02/10 13:26:16;;;;;;;15.48;10.25;;;6.70;82.60;;;;;;5014276;28;20174;-67
2023/02/10 13:29:40;;;;;;;13.50;7.55;;;6.60;82.50;;;;;;5013871;28;20524;-70
2023/02/10 13:32:31;;;;;;;12.13;8.05;;;6.70;82.50;;;;;;4994060;28;20556;-69
2023/02/10 13:35:00;;;;;;;13.07;9.35;;;6.70;81.80;;;;;;5006207;28;20205;-71
2023/02/10 13:37:38;;;;;;;14.05;8.75;;;6.60;81.20;;;;;;4994275;28;20174;-72
2023/02/10 13:40:24;;;;;;;14.07;8.90;;;6.60;82.00;;;;;;4997299;28;20182;-64
2023/02/10 13:42:56;;;;;;;12.27;7.65;;;6.60;82.00;;;;;;4994010;28;20660;-69
2023/02/10 13:45:27;;;;;;;16.73;9.15;;;6.60;82.20;;;;;;5014185;28;20563;-66
2023/02/10 13:47:59;;;;;;;15.73;10.73;;;6.60;82.60;;;;;;5011876;28;20185;-69
2023/02/10 13:50:41;;;;;;;13.45;9.43;;;6.50;83.60;;;;;;5007866;28;20245;-71
2023/02/10 13:53:26;;;;;;;14.52;9.35;;;6.60;85.30;;;;;;4994367;28;20170;-67
2023/02/10 13:56:17;;;;;;;12.57;9.90;;;6.50;85.70;;;;;;5002405;28;20563;-72
2023/02/10 13:58:52;;;;;;;16.45;9.60;;;6.60;85.80;;;;;;4995302;28;20183;-68
2023/02/10 14:01:50;;;;;;;11.32;7.10;;;6.60;85.00;;;;;;5020483;28;20185;-66
2023/02/10 14:04:18;;;;;;;15.85;9.45;;;6.60;84.40;;;;;;5013511;28;20214;-63
2023/02/10 14:06:47;;;;;;;13.75;7.90;;;6.60;85.50;;;;;;5010178;28;20678;-66
2023/02/10 14:09:21;;;;;;;14.38;8.52;;;6.70;86.80;;;;;;5013565;28;20190;-66
2023/02/10 14:11:51;;;;;;;12.85;9.30;;;6.70;87.30;;;;;;5012846;28;20173;-72
2023/02/10 14:14:18;;;;;;;11.55;8.25;;;6.70;86.60;;;;;;5013242;28;20256;-70
2023/02/10 14:16:45;;;;;;;13.13;9.00;;;6.60;84.50;;;;;;4998711;28;20210;-66
2023/02/10 14:19:29;;;;;;;13.48;9.93;;;6.60;85.30;;;;;;4993968;28;20712;-68
2023/02/10 14:21:54;;;;;;;12.30;8.60;;;6.50;84.70;;;;;;5008797;28;20533;-70
2023/02/10 14:24:29;;;;;;;11.67;9.03;;;6.50;85.00;;;;;;5012767;28;20209;-65
2023/02/10 14:27:00;;;;;;;15.38;10.05;;;6.50;85.40;;;;;;4998437;28;20216;-72
2023/02/10 14:29:30;;;;;;;15.65;9.23;;;6.40;85.30;;;;;;4992272;28;20706;-68
2023/02/10 14:31:59;;;;;;;13.63;8.98;;;6.40;86.20;;;;;;5007845;28;20218;-69
2023/02/10 14:34:31;;;;;;;17.23;9.82;;;6.40;86.10;;;;;;5011434;28;20209;-69
2023/02/10 14:36:59;;;;;;;10.65;8.23;;;6.40;86.60;;;;;;4998933;28;20179;-72
2023/02/10 14:39:30;;;;;;;10.15;7.38;;;6.50;86.30;;;;;;4993751;28;20210;-66
2023/02/10 14:41:59;;;;;;;14.25;9.38;;;6.60;85.40;;;;;;5007781;28;20525;-66
2023/02/10 14:44:47;;;;;;;16.27;9.20;;;6.60;83.70;;;;;;5012980;28;20206;-66
2023/02/10 14:47:23;;;;;;;13.57;8.73;;;6.50;84.00;;;;;;4997022;28;20183;-66
2023/02/10 14:49:53;;;;;;;14.13;8.88;;;6.50;84.50;;;;;;4993836;28;20202;-67
2023/02/10 14:52:31;;;;;;;11.82;8.38;;;6.50;84.70;;;;;;5009170;28;20181;-66
2023/02/10 14:54:57;;;;;;;11.32;7.43;;;6.40;84.80;;;;;;5008207;28;20611;-67
2023/02/10 14:57:25;;;;;;;12.38;8.15;;;6.40;85.30;;;;;;5012374;28;20181;-67
2023/02/10 14:59:55;;;;;;;14.15;8.90;;;6.40;85.80;;;;;;5004932;28;20174;-67
2023/02/10 15:02:25;;;;;;;9.05;7.10;;;6.40;85.00;;;;;;4992922;28;20254;-67
2023/02/10 15:04:57;;;;;;;11.00;8.50;;;6.40;84.60;;;;;;4992848;28;20565;-67
2023/02/10 15:07:25;;;;;;;13.43;7.07;;;6.40;84.80;;;;;;4993274;28;20198;-67
2023/02/10 15:09:51;;;;;;;18.45;9.20;;;6.40;84.90;;;;;;4992075;28;20227;-67
2023/02/10 15:12:21;;;;;;;11.88;8.13;;;6.30;84.90;;;;;;4993544;28;20173;-66
2023/02/10 15:14:58;;;;;;;11.30;7.72;;;6.30;84.60;;;;;;4992994;28;20258;-68
2023/02/10 15:17:31;;;;;;;11.77;8.38;;;6.30;84.50;;;;;;4995956;28;20166;-67
2023/02/10 15:20:18;;;;;;;16.15;7.85;;;6.20;84.40;;;;;;4996007;28;20543;-67
2023/02/10 15:22:49;;;;;;;14.07;8.15;;;6.20;84.40;;;;;;4996835;28;20271;-67
2023/02/10 15:25:33;;;;;;;13.73;8.10;;;6.20;84.60;;;;;;4996716;28;20286;-67
2023/02/10 15:28:11;;;;;;;9.35;7.03;;;6.10;84.80;;;;;;4996870;28;20506;-66
2023/02/10 15:30:57;;;;;;;9.18;7.00;;;6.10;85.00;;;;;;4996882;28;20514;-67
2023/02/10 15:33:43;;;;;;;9.25;7.38;;;6.00;84.70;;;;;;4996295;28;20526;-67
2023/02/10 15:36:09;;;;;;;14.68;7.80;;;6.00;84.50;;;;;;4980101;28;20610;-67
2023/02/10 15:39:01;;;;;;;10.47;6.97;;;6.00;84.50;;;;;;4996391;28;20193;-66
2023/02/10 15:41:28;;;;;;;11.18;6.93;;;5.90;84.40;;;;;;4996253;28;20543;-66
2023/02/10 15:43:54;;;;;;;11.25;7.43;;;5.90;84.60;;;;;;4996259;28;20243;-66
2023/02/10 15:46:23;;;;;;;13.07;8.43;;;5.80;84.70;;;;;;4996655;28;20167;-67
2023/02/10 15:48:48;;;;;;;13.68;8.70;;;5.80;84.80;;;;;;4996547;28;20213;-66
2023/02/10 15:51:23;;;;;;;12.93;7.30;;;5.70;85.00;;;;;;4996362;28;20166;-66
2023/02/10 15:53:55;;;;;;;12.88;8.45;;;5.70;85.20;;;;;;4994755;28;20229;-66
2023/02/10 15:56:25;;;;;;;10.75;6.82;;;5.60;85.30;;;;;;4996438;28;20510;-66
2023/02/10 15:58:51;;;;;;;9.98;7.47;;;5.50;85.60;;;;;;4996109;28;20179;-66
2023/02/10 16:01:17;;;;;;;10.48;7.97;;;5.50;86.20;;;;;;4996299;28;20184;-66
2023/02/10 16:03:43;;;;;;;18.08;9.30;;;5.40;87.30;;;;;;4995562;28;20665;-66
2023/02/10 16:06:15;;;;;;;14.27;9.03;;;5.30;87.80;;;;;;4995917;28;20177;-66
2023/02/10 16:08:42;;;;;;;13.43;9.07;;;5.20;88.00;;;;;;4995960;28;20566;-66
2023/02/10 16:11:10;;;;;;;9.25;7.28;;;5.20;88.50;;;;;;4996413;28;20173;-67
2023/02/10 16:13:36;;;;;;;12.02;8.00;;;5.10;88.80;;;;;;4994284;28;20207;-67
2023/02/10 16:16:02;;;;;;;9.43;7.17;;;5.00;89.10;;;;;;4996089;28;20202;-67
2023/02/10 16:18:29;;;;;;;9.38;6.70;;;4.90;89.60;;;;;;4995818;28;20517;-67
2023/02/10 16:20:54;;;;;;;11.90;8.20;;;4.80;89.40;;;;;;4995590;28;20546;-67
2023/02/10 16:23:21;;;;;;;11.73;6.83;;;4.80;89.40;;;;;;4995557;28;20170;-67
2023/02/10 16:25:48;;;;;;;14.88;8.20;;;4.70;89.30;;;;;;4995588;28;20474;-67
2023/02/10 16:28:18;;;;;;;14.75;7.65;;;4.70;89.70;;;;;;5007224;28;20265;-67
2023/02/10 16:30:44;;;;;;;8.85;6.55;;;4.60;89.80;;;;;;5014769;28;20232;-68
2023/02/10 16:33:10;;;;;;;12.30;8.32;;;4.60;89.90;;;;;;5014735;28;20279;-68
2023/02/10 16:35:36;;;;;;;12.97;10.03;;;4.50;90.10;;;;;;5014792;28;20328;-67
2023/02/10 16:38:02;;;;;;;10.93;7.73;;;4.50;90.20;;;;;;5017870;28;20430;-67
2023/02/10 16:40:34;;;;;;;11.83;7.40;;;4.40;90.40;;;;;;5010323;28;20182;-67
2023/02/10 16:43:00;;;;;;;12.45;8.13;;;4.40;90.50;;;;;;4994933;28;20586;-66
2023/02/10 16:45:29;;;;;;;18.85;8.25;;;4.40;90.70;;;;;;4995127;28;20582;-67
2023/02/10 16:47:56;;;;;;;15.63;8.80;;;4.30;91.10;;;;;;4994938;28;20651;-67
2023/02/10 16:50:24;;;;;;;11.82;9.25;;;4.30;91.10;;;;;;4994832;28;20553;-67
2023/02/10 16:52:50;;;;;;;9.73;7.45;;;4.30;91.10;;;;;;4994719;28;20246;-67
2023/02/10 16:55:17;;;;;;;12.83;7.10;;;4.30;91.00;;;;;;5010038;28;20725;-67
2023/02/10 16:57:43;;;;;;;11.10;8.45;;;4.20;90.90;;;;;;4996376;28;20437;-67
2023/02/10 17:00:11;;;;;;;14.80;9.73;;;4.20;90.90;;;;;;4994971;28;20194;-67
2023/02/10 17:02:37;;;;;;;13.60;8.15;;;4.20;90.90;;;;;;4994881;28;20179;-67
2023/02/10 17:05:02;;;;;;;11.10;6.83;;;4.20;91.00;;;;;;4994276;28;20288;-67
2023/02/10 17:07:28;;;;;;;10.23;7.43;;;4.20;91.10;;;;;;4994703;28;20506;-66
2023/02/10 17:09:53;;;;;;;14.27;8.77;;;4.10;91.40;;;;;;5009798;28;20302;-68
2023/02/10 17:12:19;;;;;;;19.27;9.70;;;4.10;91.70;;;;;;4994806;28;20164;-66
2023/02/10 17:14:45;;;;;;;15.60;10.87;;;4.10;91.90;;;;;;4994270;28;20657;-66
2023/02/10 17:17:11;;;;;;;12.83;9.07;;;4.00;92.40;;;;;;4994756;28;20175;-66
2023/02/10 17:19:36;;;;;;;16.47;11.23;;;3.90;92.90;;;;;;4994289;28;20235;-67
2023/02/10 17:22:02;;;;;;;12.77;9.10;;;3.80;93.00;;;;;;4994297;28;20417;-67
2023/02/10 17:24:28;;;;;;;11.70;8.20;;;3.80;93.00;;;;;;4993940;28;20685;-66
2023/02/10 17:26:54;;;;;;;18.50;10.40;;;3.70;93.10;;;;;;4994430;28;20530;-67
2023/02/10 17:29:21;;;;;;;19.58;8.35;;;3.60;93.30;;;;;;4994002;28;20446;-66
2023/02/10 17:31:47;;;;;;;11.02;7.32;;;3.50;93.40;;;;;;4993049;28;20266;-66
2023/02/10 17:34:13;;;;;;;16.67;9.97;;;3.40;93.80;;;;;;4993999;28;20274;-66
2023/02/10 17:36:39;;;;;;;12.50;9.00;;;3.30;93.90;;;;;;5006559;28;20409;-65
2023/02/10 17:39:23;;;;;;;16.97;10.20;;;3.30;93.80;;;;;;5008413;28;20649;-66
2023/02/10 17:41:50;;;;;;;11.45;8.02;;;3.30;93.90;;;;;;4994537;28;20183;-67
2023/02/10 17:44:17;;;;;;;12.50;9.65;;;3.20;94.00;;;;;;4996239;28;20561;-68
2023/02/10 17:46:46;;;;;;;17.08;9.90;;;3.30;94.00;;;;;;5005573;28;20183;-69
2023/02/10 17:49:12;;;;;;;15.13;9.20;;;3.20;94.10;;;;;;5011151;28;20190;-69
2023/02/10 17:51:38;;;;;;;15.88;8.93;;;3.10;94.10;;;;;;5013805;28;20186;-68
2023/02/10 17:54:04;;;;;;;17.17;10.70;;;3.00;94.40;;;;;;4997380;28;20187;-68
2023/02/10 17:56:30;;;;;;;13.43;8.90;;;3.00;94.60;;;;;;4997253;28;20175;-70
2023/02/10 17:58:55;;;;;;;20.03;10.80;;;2.90;95.00;;;;;;5005663;28;20418;-69
2023/02/10 18:01:30;;;;;;;18.50;9.57;;;2.80;95.50;;;;;;5013743;28;20210;-70
2023/02/10 18:03:56;;;;;;;17.95;10.18;;;2.70;95.60;;;;;;5006965;28;20190;-70
2023/02/10 18:06:25;;;;;;;11.63;9.48;;;2.60;95.90;;;;;;5013543;28;20531;-69
2023/02/10 18:08:51;;;;;;;18.02;13.13;;;2.50;96.20;;;;;;5001308;28;20294;-70